PWSweather.com
Personal Weather Stations
Station Observations
WISCHPK61
Green Bay Schmitt Park, Green Bay, WI 54311

Green Bay Schmitt ParkGreen Bay, WI 54311

Lat: 44.514277, Lon: -87.935067

Elevation: 735

Station Type: Acu Rite Pro Weather Center model 02032C

http://greenbayweathercam.com

High Low Average
Temperature 32.7°F0.4°C 17.2°F-8.2°C 23.8°F-4.6°C
Dew Point 25.3°F-3.7°C 13.4°F-10.3°C 20.0°F-6.7°C
Winds 5.8 mph 9.3 kmh Calm Calm 1.0 mph S1.6 kmh S
Wind Gusts 5.8 mph9.3 kmh -- 1.0 mph1.6 kmh
Humidity 92% 73% 85%
Pressure 29.27 in991.2 mb 29.06 in984.1 mb -
Precipitation 0.00 in0.0 mm - -
Hour Temp Dew Point Humidity Winds Wind Gusts Pressure Precip Precip Rate Daily Precip Total
12:00 AM 18.9°F-7.3°C 13.5°F-10.3°C 79% 1.2 mph NW1.9 kmh NW 2.3 mph3.7 kmh 29.26 in990.9 mb - 0.00 in0.0 mm 0.00 in0.0 mm
12:15 AM 18.7°F-7.4°C 13.3°F-10.4°C 79% 1.2 mph E1.9 kmh E 1.2 mph1.9 kmh 29.26 in990.9 mb - 0.00 in0.0 mm 0.00 in0.0 mm
12:30 AM 18.5°F-7.5°C 13.4°F-10.3°C 80% Calm Calm 1.2 mph1.9 kmh 29.27 in991.2 mb - 0.00 in0.0 mm 0.00 in0.0 mm
12:45 AM 18.5°F-7.5°C 13.6°F-10.2°C 81% 1.2 mph NNW1.9 kmh NNW 1.2 mph1.9 kmh 29.27 in991.2 mb - 0.00 in0.0 mm 0.00 in0.0 mm
01:00 AM 18.3°F-7.6°C 13.4°F-10.3°C 81% Calm Calm 1.2 mph1.9 kmh 29.27 in991.2 mb - 0.00 in0.0 mm 0.00 in0.0 mm
01:15 AM 18.1°F-7.7°C 13.5°F-10.3°C 82% Calm Calm -- 29.25 in990.5 mb - 0.00 in0.0 mm 0.00 in0.0 mm
01:30 AM 18.1°F-7.7°C 13.5°F-10.3°C 82% Calm Calm -- 29.25 in990.5 mb - 0.00 in0.0 mm 0.00 in0.0 mm
01:45 AM 18.0°F-7.8°C 13.7°F-10.2°C 83% Calm Calm -- 29.25 in990.5 mb - 0.00 in0.0 mm 0.00 in0.0 mm
02:00 AM 17.6°F-8.0°C 13.6°F-10.2°C 84% Calm Calm 2.3 mph3.7 kmh 29.25 in990.5 mb - 0.00 in0.0 mm 0.00 in0.0 mm
02:15 AM 17.8°F-7.9°C 13.8°F-10.1°C 84% Calm Calm -- 29.25 in990.5 mb - 0.00 in0.0 mm 0.00 in0.0 mm
02:30 AM 17.6°F-8.0°C 13.9°F-10.1°C 85% Calm Calm 1.2 mph1.9 kmh 29.25 in990.5 mb - 0.00 in0.0 mm 0.00 in0.0 mm
02:45 AM 17.6°F-8.0°C 13.9°F-10.1°C 85% Calm Calm -- 29.25 in990.5 mb - 0.00 in0.0 mm 0.00 in0.0 mm
03:00 AM 17.6°F-8.0°C 13.9°F-10.1°C 85% Calm Calm -- 29.25 in990.5 mb - 0.00 in0.0 mm 0.00 in0.0 mm
03:15 AM 17.6°F-8.0°C 14.1°F-9.9°C 86% Calm Calm -- 29.25 in990.5 mb - 0.00 in0.0 mm 0.00 in0.0 mm
03:30 AM 17.6°F-8.0°C 14.1°F-9.9°C 86% Calm Calm -- 29.25 in990.5 mb - 0.00 in0.0 mm 0.00 in0.0 mm
03:45 AM 17.6°F-8.0°C 14.1°F-9.9°C 86% Calm Calm -- 29.25 in990.5 mb - 0.00 in0.0 mm 0.00 in0.0 mm
04:00 AM 17.8°F-7.9°C 14.3°F-9.8°C 86% 1.2 mph SSE1.9 kmh SSE -- 29.24 in990.2 mb - 0.00 in0.0 mm 0.00 in0.0 mm
04:15 AM 17.8°F-7.9°C 14.6°F-9.7°C 87% Calm Calm -- 29.25 in990.5 mb - 0.00 in0.0 mm 0.00 in0.0 mm
04:30 AM 17.8°F-7.9°C 14.6°F-9.7°C 87% 1.2 mph W1.9 kmh W 2.3 mph3.7 kmh 29.24 in990.2 mb - 0.00 in0.0 mm 0.00 in0.0 mm
04:45 AM 17.8°F-7.9°C 14.6°F-9.7°C 87% 1.2 mph SE1.9 kmh SE 2.3 mph3.7 kmh 29.24 in990.2 mb - 0.00 in0.0 mm 0.00 in0.0 mm
05:00 AM 17.6°F-8.0°C 14.7°F-9.6°C 88% Calm Calm 1.2 mph1.9 kmh 29.24 in990.2 mb - 0.00 in0.0 mm 0.00 in0.0 mm
05:15 AM 17.6°F-8.0°C 14.9°F-9.5°C 89% Calm Calm 1.2 mph1.9 kmh 29.23 in989.8 mb - 0.00 in0.0 mm 0.00 in0.0 mm
05:30 AM 17.6°F-8.0°C 14.9°F-9.5°C 89% 1.2 mph SW1.9 kmh SW 1.2 mph1.9 kmh 29.23 in989.8 mb - 0.00 in0.0 mm 0.00 in0.0 mm
05:45 AM 17.4°F-8.1°C 14.7°F-9.6°C 89% Calm Calm 1.2 mph1.9 kmh 29.23 in989.8 mb - 0.00 in0.0 mm 0.00 in0.0 mm
06:00 AM 17.4°F-8.1°C 14.7°F-9.6°C 89% 1.2 mph SW1.9 kmh SW 2.3 mph3.7 kmh 29.23 in989.8 mb - 0.00 in0.0 mm 0.00 in0.0 mm
06:15 AM 17.4°F-8.1°C 15.0°F-9.4°C 90% Calm Calm -- 29.23 in989.8 mb - 0.00 in0.0 mm 0.00 in0.0 mm
06:30 AM 17.2°F-8.2°C 14.8°F-9.6°C 90% 1.2 mph SE1.9 kmh SE 1.2 mph1.9 kmh 29.23 in989.8 mb - 0.00 in0.0 mm 0.00 in0.0 mm
06:45 AM 17.4°F-8.1°C 15.0°F-9.4°C 90% Calm Calm -- 29.22 in989.5 mb - 0.00 in0.0 mm 0.00 in0.0 mm
07:00 AM 17.4°F-8.1°C 15.2°F-9.3°C 91% Calm Calm 1.2 mph1.9 kmh 29.22 in989.5 mb - 0.00 in0.0 mm 0.00 in0.0 mm
07:15 AM 17.6°F-8.0°C 15.4°F-9.2°C 91% 1.2 mph S1.9 kmh S 1.2 mph1.9 kmh 29.21 in989.2 mb - 0.00 in0.0 mm 0.00 in0.0 mm
07:30 AM 17.6°F-8.0°C 15.7°F-9.1°C 92% 1.2 mph SE1.9 kmh SE 1.2 mph1.9 kmh 29.20 in988.8 mb - 0.00 in0.0 mm 0.00 in0.0 mm
07:45 AM 18.1°F-7.7°C 16.2°F-8.8°C 92% Calm Calm 1.2 mph1.9 kmh 29.20 in988.8 mb - 0.00 in0.0 mm 0.00 in0.0 mm
08:00 AM 18.5°F-7.5°C 16.6°F-8.6°C 92% 1.2 mph SSE1.9 kmh SSE 3.5 mph5.6 kmh 29.19 in988.5 mb - 0.00 in0.0 mm 0.00 in0.0 mm
08:15 AM 18.9°F-7.3°C 16.8°F-8.4°C 91% 1.2 mph S1.9 kmh S 2.3 mph3.7 kmh 29.19 in988.5 mb - 0.00 in0.0 mm 0.00 in0.0 mm
08:30 AM 19.0°F-7.2°C 16.8°F-8.4°C 91% Calm Calm 2.3 mph3.7 kmh 29.18 in988.1 mb - 0.00 in0.0 mm 0.00 in0.0 mm
08:45 AM 19.4°F-7.0°C 16.9°F-8.4°C 90% 1.2 mph NNW1.9 kmh NNW 2.3 mph3.7 kmh 29.18 in988.1 mb - 0.00 in0.0 mm 0.00 in0.0 mm
09:00 AM 19.8°F-6.8°C 17.4°F-8.1°C 90% 1.2 mph W1.9 kmh W 1.2 mph1.9 kmh 29.19 in988.5 mb - 0.00 in0.0 mm 0.00 in0.0 mm
09:15 AM 20.3°F-6.5°C 17.8°F-7.9°C 90% Calm Calm 1.2 mph1.9 kmh 29.21 in989.2 mb - 0.00 in0.0 mm 0.00 in0.0 mm
09:30 AM 21.0°F-6.1°C 18.0°F-7.8°C 88% 1.2 mph SSE1.9 kmh SSE 1.2 mph1.9 kmh 29.20 in988.8 mb - 0.00 in0.0 mm 0.00 in0.0 mm
09:45 AM 21.9°F-5.6°C 18.6°F-7.4°C 87% Calm Calm 1.2 mph1.9 kmh 29.20 in988.8 mb - 0.00 in0.0 mm 0.00 in0.0 mm
10:00 AM 22.5°F-5.3°C 18.9°F-7.3°C 86% 1.2 mph NNE1.9 kmh NNE 1.2 mph1.9 kmh 29.20 in988.8 mb - 0.00 in0.0 mm 0.00 in0.0 mm
10:15 AM 22.8°F-5.1°C 19.0°F-7.2°C 85% Calm Calm 1.2 mph1.9 kmh 29.20 in988.8 mb - 0.00 in0.0 mm 0.00 in0.0 mm
10:30 AM 22.8°F-5.1°C 19.0°F-7.2°C 85% Calm Calm -- 29.20 in988.8 mb - 0.00 in0.0 mm 0.00 in0.0 mm
10:45 AM 23.4°F-4.8°C 19.6°F-6.9°C 85% 1.2 mph S1.9 kmh S 1.2 mph1.9 kmh 29.19 in988.5 mb - 0.00 in0.0 mm 0.00 in0.0 mm
11:00 AM 23.7°F-4.6°C 19.6°F-6.9°C 84% Calm Calm 1.2 mph1.9 kmh 29.19 in988.5 mb - 0.00 in0.0 mm 0.00 in0.0 mm
11:15 AM 23.9°F-4.5°C 19.5°F-6.9°C 83% 1.2 mph ESE1.9 kmh ESE 2.3 mph3.7 kmh 29.17 in987.8 mb - 0.00 in0.0 mm 0.00 in0.0 mm
11:30 AM 25.2°F-3.8°C 20.2°F-6.6°C 81% 1.2 mph WNW1.9 kmh WNW 1.2 mph1.9 kmh 29.16 in987.5 mb - 0.00 in0.0 mm 0.00 in0.0 mm
11:45 AM 25.5°F-3.6°C 20.2°F-6.6°C 80% 1.2 mph NNW1.9 kmh NNW -- 29.18 in988.1 mb - 0.00 in0.0 mm 0.00 in0.0 mm
12:00 PM 26.2°F-3.2°C 20.9°F-6.2°C 80% 2.3 mph SSE3.7 kmh SSE 1.2 mph1.9 kmh 29.20 in988.8 mb - 0.00 in0.0 mm 0.00 in0.0 mm
12:15 PM 26.8°F-2.9°C 21.2°F-6.0°C 79% 1.2 mph SW1.9 kmh SW 2.3 mph3.7 kmh 29.17 in987.8 mb - 0.00 in0.0 mm 0.00 in0.0 mm
12:30 PM 26.5°F-3.1°C 21.2°F-6.0°C 80% 2.3 mph SE3.7 kmh SE 5.8 mph9.3 kmh 29.15 in987.1 mb - 0.00 in0.0 mm 0.00 in0.0 mm
12:45 PM 26.6°F-3.0°C 21.0°F-6.1°C 79% 1.2 mph W1.9 kmh W 1.2 mph1.9 kmh 29.15 in987.1 mb - 0.00 in0.0 mm 0.00 in0.0 mm
01:00 PM 27.2°F-2.7°C 21.5°F-5.8°C 79% 1.2 mph ESE1.9 kmh ESE 1.2 mph1.9 kmh 29.15 in987.1 mb - 0.00 in0.0 mm 0.00 in0.0 mm
01:15 PM 28.2°F-2.1°C 21.9°F-5.6°C 77% 1.2 mph SW1.9 kmh SW 2.3 mph3.7 kmh 29.15 in987.1 mb - 0.00 in0.0 mm 0.00 in0.0 mm
01:30 PM 28.6°F-1.9°C 22.3°F-5.4°C 77% 1.2 mph NW1.9 kmh NW 1.2 mph1.9 kmh 29.15 in987.1 mb - 0.00 in0.0 mm 0.00 in0.0 mm
01:45 PM 28.0°F-2.2°C 22.1°F-5.5°C 78% 1.2 mph N1.9 kmh N 2.3 mph3.7 kmh 29.13 in986.5 mb - 0.00 in0.0 mm 0.00 in0.0 mm
02:00 PM 28.9°F-1.7°C 22.9°F-5.1°C 78% 1.2 mph NNW1.9 kmh NNW 1.2 mph1.9 kmh 29.11 in985.8 mb - 0.00 in0.0 mm 0.00 in0.0 mm
02:15 PM 30.9°F-0.6°C 23.9°F-4.5°C 75% 1.2 mph WSW1.9 kmh WSW 2.3 mph3.7 kmh 29.09 in985.1 mb - 0.00 in0.0 mm 0.00 in0.0 mm
02:30 PM 31.1°F-0.5°C 24.1°F-4.4°C 75% 1.2 mph WNW1.9 kmh WNW 1.2 mph1.9 kmh 29.09 in985.1 mb - 0.00 in0.0 mm 0.00 in0.0 mm
02:45 PM 31.9°F-0.1°C 24.9°F-3.9°C 75% 2.3 mph NW3.7 kmh NW 3.5 mph5.6 kmh 29.08 in984.8 mb - 0.00 in0.0 mm 0.00 in0.0 mm
03:00 PM 32.7°F0.4°C 25.0°F-3.9°C 73% 2.3 mph NNW3.7 kmh NNW 3.5 mph5.6 kmh 29.08 in984.8 mb - 0.00 in0.0 mm 0.00 in0.0 mm
03:15 PM 31.8°F-0.1°C 25.1°F-3.8°C 76% 5.8 mph N9.3 kmh N 5.8 mph9.3 kmh 29.07 in984.4 mb - 0.00 in0.0 mm 0.00 in0.0 mm
03:30 PM 31.8°F-0.1°C 25.1°F-3.8°C 76% Calm Calm -- 29.07 in984.4 mb - 0.00 in0.0 mm 0.00 in0.0 mm
03:45 PM 31.3°F-0.4°C 24.9°F-3.9°C 77% 3.5 mph WNW5.6 kmh WNW 3.5 mph5.6 kmh 29.06 in984.1 mb - 0.00 in0.0 mm 0.00 in0.0 mm
04:00 PM 30.9°F-0.6°C 24.8°F-4.0°C 78% 4.6 mph NE7.4 kmh NE 5.8 mph9.3 kmh 29.06 in984.1 mb - 0.00 in0.0 mm 0.00 in0.0 mm
04:15 PM 30.7°F-0.7°C 25.0°F-3.9°C 79% Calm Calm 1.2 mph1.9 kmh 29.06 in984.1 mb - 0.00 in0.0 mm 0.00 in0.0 mm
04:30 PM 30.6°F-0.8°C 25.2°F-3.8°C 80% 1.2 mph S1.9 kmh S 3.5 mph5.6 kmh 29.06 in984.1 mb - 0.00 in0.0 mm 0.00 in0.0 mm
04:45 PM 30.4°F-0.9°C 25.3°F-3.7°C 81% 2.3 mph SW3.7 kmh SW 2.3 mph3.7 kmh 29.07 in984.4 mb - 0.00 in0.0 mm 0.00 in0.0 mm
05:00 PM 30.0°F-1.1°C 25.2°F-3.8°C 82% Calm Calm 1.2 mph1.9 kmh 29.07 in984.4 mb - 0.00 in0.0 mm 0.00 in0.0 mm
05:15 PM 29.7°F-1.3°C 24.9°F-3.9°C 82% 1.2 mph SW1.9 kmh SW 1.2 mph1.9 kmh 29.07 in984.4 mb - 0.00 in0.0 mm 0.00 in0.0 mm
05:30 PM 29.5°F-1.4°C 25.0°F-3.9°C 83% Calm Calm -- 29.08 in984.8 mb - 0.00 in0.0 mm 0.00 in0.0 mm
05:45 PM 29.1°F-1.6°C 24.9°F-3.9°C 84% Calm Calm -- 29.08 in984.8 mb - 0.00 in0.0 mm 0.00 in0.0 mm
06:00 PM 28.8°F-1.8°C 24.9°F-3.9°C 85% 1.2 mph SE1.9 kmh SE 3.5 mph5.6 kmh 29.08 in984.8 mb - 0.00 in0.0 mm 0.00 in0.0 mm
06:15 PM 28.4°F-2.0°C 24.7°F-4.1°C 86% Calm Calm -- 29.09 in985.1 mb - 0.00 in0.0 mm 0.00 in0.0 mm
06:30 PM 28.0°F-2.2°C 24.4°F-4.2°C 86% Calm Calm 1.2 mph1.9 kmh 29.09 in985.1 mb - 0.00 in0.0 mm 0.00 in0.0 mm
06:45 PM 27.9°F-2.3°C 24.5°F-4.2°C 87% 2.3 mph SSE3.7 kmh SSE 3.5 mph5.6 kmh 29.09 in985.1 mb - 0.00 in0.0 mm 0.00 in0.0 mm
07:00 PM 27.7°F-2.4°C 24.3°F-4.3°C 87% 2.3 mph SW3.7 kmh SW 5.8 mph9.3 kmh 29.09 in985.1 mb - 0.00 in0.0 mm 0.00 in0.0 mm
07:15 PM 27.3°F-2.6°C 24.0°F-4.4°C 87% Calm Calm 1.2 mph1.9 kmh 29.10 in985.4 mb - 0.00 in0.0 mm 0.00 in0.0 mm
07:30 PM 27.3°F-2.6°C 24.2°F-4.3°C 88% Calm Calm -- 29.10 in985.4 mb - 0.00 in0.0 mm 0.00 in0.0 mm
07:45 PM 27.0°F-2.8°C 23.9°F-4.5°C 88% 1.2 mph S1.9 kmh S 2.3 mph3.7 kmh 29.10 in985.4 mb - 0.00 in0.0 mm 0.00 in0.0 mm
08:00 PM 27.1°F-2.7°C 24.0°F-4.4°C 88% 1.2 mph S1.9 kmh S 2.3 mph3.7 kmh 29.11 in985.8 mb - 0.00 in0.0 mm 0.00 in0.0 mm
08:15 PM 27.0°F-2.8°C 23.9°F-4.5°C 88% 1.2 mph S1.9 kmh S 1.2 mph1.9 kmh 29.12 in986.1 mb - 0.00 in0.0 mm 0.00 in0.0 mm
08:30 PM 26.6°F-3.0°C 23.5°F-4.7°C 88% Calm Calm 1.2 mph1.9 kmh 29.12 in986.1 mb - 0.00 in0.0 mm 0.00 in0.0 mm
08:45 PM 26.4°F-3.1°C 23.3°F-4.8°C 88% Calm Calm -- 29.12 in986.1 mb - 0.00 in0.0 mm 0.00 in0.0 mm
09:00 PM 26.2°F-3.2°C 23.1°F-4.9°C 88% Calm Calm -- 29.11 in985.8 mb - 0.00 in0.0 mm 0.00 in0.0 mm
09:15 PM 25.9°F-3.4°C 23.1°F-4.9°C 89% Calm Calm -- 29.12 in986.1 mb - 0.00 in0.0 mm 0.00 in0.0 mm
09:30 PM 25.7°F-3.5°C 23.2°F-4.9°C 90% Calm Calm 1.2 mph1.9 kmh 29.11 in985.8 mb - 0.00 in0.0 mm 0.00 in0.0 mm
09:45 PM 25.3°F-3.7°C 22.8°F-5.1°C 90% Calm Calm -- 29.11 in985.8 mb - 0.00 in0.0 mm 0.00 in0.0 mm
10:00 PM 25.3°F-3.7°C 22.8°F-5.1°C 90% Calm Calm 3.5 mph5.6 kmh 29.11 in985.8 mb - 0.00 in0.0 mm 0.00 in0.0 mm
10:15 PM 25.3°F-3.7°C 22.8°F-5.1°C 90% Calm Calm -- 29.11 in985.8 mb - 0.00 in0.0 mm 0.00 in0.0 mm
10:30 PM 25.2°F-3.8°C 22.7°F-5.2°C 90% 1.2 mph SSE1.9 kmh SSE 4.6 mph7.4 kmh 29.12 in986.1 mb - 0.00 in0.0 mm 0.00 in0.0 mm
10:45 PM 24.8°F-4.0°C 22.3°F-5.4°C 90% Calm Calm 1.2 mph1.9 kmh 29.11 in985.8 mb - 0.00 in0.0 mm 0.00 in0.0 mm
11:00 PM 24.4°F-4.2°C 22.2°F-5.4°C 91% Calm Calm -- 29.11 in985.8 mb - 0.00 in0.0 mm 0.00 in0.0 mm
11:15 PM 24.3°F-4.3°C 22.1°F-5.5°C 91% Calm Calm -- 29.11 in985.8 mb - 0.00 in0.0 mm 0.00 in0.0 mm
11:30 PM 24.5°F-4.2°C 22.2°F-5.4°C 91% Calm Calm -- 29.11 in985.8 mb - 0.00 in0.0 mm 0.00 in0.0 mm
11:45 PM 24.3°F-4.3°C 22.1°F-5.5°C 91% Calm Calm -- 29.11 in985.8 mb - 0.00 in0.0 mm 0.00 in0.0 mm